Time;durP1;ratioP1;P1;durP2;ratioP2;P2;SDS_P1;SDS_P2;PMS_P1;PMS_P2;Temp;Humidity;BMP_temperature;BMP_pressure;BME280_temperature;BME280_humidity;BME280_pressure;Samples;Min_cycle;Max_cycle;Signal;HPM_P1;HPM_P2
2022/07/12 00:02:23;;;;;;;;;3.00;3.00;;;;;32.61;34.01;101749.84;5115057;27;45355;-76
2022/07/12 00:04:48;;;;;;;;;2.75;2.75;;;;;32.48;34.25;101743.69;5110187;27;45339;-76
2022/07/12 00:07:14;;;;;;;;;2.00;2.00;;;;;32.42;33.64;101739.09;5116917;27;45341;-76
2022/07/12 00:09:39;;;;;;;;;2.50;2.50;;;;;32.43;34.52;101730.66;5118492;27;45371;-76
2022/07/12 00:12:05;;;;;;;;;2.00;2.00;;;;;32.40;34.69;101727.56;5099556;27;47302;-77
2022/07/12 00:14:31;;;;;;;;;3.00;2.00;;;;;32.34;34.62;101726.53;5115573;27;45413;-77
2022/07/12 00:16:56;;;;;;;;;2.00;2.00;;;;;32.36;34.16;101726.31;5111960;27;45432;-76
2022/07/12 00:19:22;;;;;;;;;1.25;1.25;;;;;32.21;34.50;101726.66;5115545;27;45614;-77
2022/07/12 00:21:47;;;;;;;;;1.25;1.00;;;;;32.19;34.28;101728.78;5117362;27;45463;-76
2022/07/12 00:24:12;;;;;;;;;1.00;1.00;;;;;32.11;35.02;101729.88;5114618;27;45402;-76
2022/07/12 00:26:37;;;;;;;;;2.00;2.00;;;;;32.06;34.87;101723.38;5113967;27;45322;-76
2022/07/12 00:29:03;;;;;;;;;3.00;2.00;;;;;32.09;34.51;101731.13;5109923;27;45481;-76
2022/07/12 00:31:28;;;;;;;;;3.00;3.00;;;;;32.12;34.43;101733.44;5099661;27;52707;-76
2022/07/12 00:33:53;;;;;;;;;3.25;2.00;;;;;32.13;34.37;101730.47;5113932;27;45469;-76
2022/07/12 00:36:19;;;;;;;;;2.00;2.00;;;;;32.12;34.87;101730.69;5118629;27;45491;-76
2022/07/12 00:38:45;;;;;;;;;3.00;2.00;;;;;32.09;34.54;101723.78;5117194;27;45452;-76
2022/07/12 00:41:10;;;;;;;;;2.00;2.00;;;;;32.18;34.71;101724.38;5115211;27;45432;-76
2022/07/12 00:43:36;;;;;;;;;3.00;3.00;;;;;32.09;35.07;101725.66;5097562;27;45735;-76
2022/07/12 00:46:02;;;;;;;;;2.00;2.00;;;;;32.12;34.88;101723.34;5119293;27;45222;-77
2022/07/12 00:48:27;;;;;;;;;2.00;2.00;;;;;32.02;34.71;101720.25;5116782;27;45248;-76
2022/07/12 00:50:53;;;;;;;;;2.25;2.25;;;;;31.88;35.38;101722.22;5123172;27;46303;-76
2022/07/12 00:53:23;;;;;;;;;3.50;2.00;;;;;31.84;35.17;101718.28;5121589;27;45734;-76
2022/07/12 00:55:52;;;;;;;;;2.00;2.00;;;;;31.81;35.55;101721.44;5120014;27;45540;-76
2022/07/12 00:58:17;;;;;;;;;3.00;3.00;;;;;31.83;35.56;101718.50;5110648;27;45419;-76
2022/07/12 01:00:43;;;;;;;;;4.00;2.25;;;;;31.62;35.91;101716.94;5120053;27;45316;-76
2022/07/12 01:03:08;;;;;;;;;3.00;3.00;;;;;31.65;35.54;101715.66;5115460;27;45347;-76
2022/07/12 01:05:33;;;;;;;;;4.00;4.00;;;;;31.72;35.46;101713.72;5114378;27;45332;-76
2022/07/12 01:07:59;;;;;;;;;4.25;3.00;;;;;31.80;35.77;101710.72;5102357;27;45965;-76
2022/07/12 01:10:24;;;;;;;;;3.00;3.00;;;;;31.87;35.66;101714.25;5120654;27;45705;-76
2022/07/12 01:12:50;;;;;;;;;4.50;2.00;;;;;31.91;35.88;101715.50;5118211;27;45319;-76
2022/07/12 01:15:15;;;;;;;;;3.00;3.00;;;;;31.74;36.05;101717.91;5117642;27;45490;-76
2022/07/12 01:17:43;;;;;;;;;2.00;2.00;;;;;31.50;36.10;101713.22;5115347;27;45424;-77
2022/07/12 01:20:09;;;;;;;;;4.50;3.00;;;;;31.70;35.43;101722.13;5119603;27;46373;-76
2022/07/12 01:22:36;;;;;;;;;3.00;3.00;;;;;31.60;36.27;101719.00;5116429;27;45496;-77
2022/07/12 01:25:03;;;;;;;;;4.00;3.00;;;;;31.45;36.54;101724.75;5101809;27;45309;-76
2022/07/12 01:27:29;;;;;;;;;2.75;2.75;;;;;31.54;36.43;101723.47;5120142;27;45500;-76
2022/07/12 01:29:55;;;;;;;;;4.00;2.75;;;;;31.45;36.24;101722.03;5097722;27;47179;-76
2022/07/12 01:32:28;;;;;;;;;3.50;3.50;;;;;31.65;36.10;101710.19;5099707;27;45407;-76
2022/07/12 01:34:56;;;;;;;;;3.75;3.75;;;;;31.56;36.53;101702.25;5115952;27;45298;-76
2022/07/12 01:37:24;;;;;;;;;5.25;5.25;;;;;31.80;36.04;101710.72;5119951;27;45393;-77
2022/07/12 01:39:54;;;;;;;;;8.50;5.25;;;;;31.79;36.02;101709.06;5116856;27;45513;-76
2022/07/12 01:42:25;;;;;;;;;5.00;4.00;;;;;31.84;35.93;101706.50;5114761;27;45455;-76
2022/07/12 01:44:52;;;;;;;;;4.75;4.25;;;;;31.89;35.50;101707.50;5120166;27;45400;-76
2022/07/12 01:47:18;;;;;;;;;4.00;4.00;;;;;31.96;35.68;101708.28;5115980;27;45402;-76
2022/07/12 01:49:44;;;;;;;;;3.00;3.00;;;;;32.00;35.61;101699.66;5118628;27;46206;-76
2022/07/12 01:52:10;;;;;;;;;4.00;4.00;;;;;31.88;35.57;101708.56;5116076;27;45463;-77
2022/07/12 01:54:35;;;;;;;;;4.00;4.00;;;;;31.86;35.74;101713.44;5118959;27;45425;-77
2022/07/12 01:57:02;;;;;;;;;3.25;3.25;;;;;31.89;35.52;101706.69;5093651;27;45701;-76
2022/07/12 01:59:28;;;;;;;;;4.50;4.00;;;;;31.91;35.86;101715.50;5111931;27;45477;-77
2022/07/12 02:01:54;;;;;;;;;4.00;4.00;;;;;31.88;35.82;101707.72;5114796;27;45553;-76
2022/07/12 02:04:19;;;;;;;;;3.50;3.50;;;;;31.83;35.77;101710.31;5118491;27;45487;-77
2022/07/12 02:06:45;;;;;;;;;4.00;4.00;;;;;31.65;36.19;101708.31;5098844;27;45515;-76
2022/07/12 02:09:11;;;;;;;;;3.00;3.00;;;;;31.37;36.78;101716.81;5101877;27;47533;-76
2022/07/12 02:11:37;;;;;;;;;3.00;3.00;;;;;31.50;36.20;101705.81;5115287;27;45453;-76
2022/07/12 02:14:03;;;;;;;;;2.25;2.25;;;;;31.52;36.43;101708.34;5115661;27;45433;-76
2022/07/12 02:16:28;;;;;;;;;3.50;3.00;;;;;31.55;36.43;101713.38;5119361;27;45330;-76
2022/07/12 02:18:53;;;;;;;;;2.00;2.00;;;;;31.68;35.91;101713.34;5113471;27;46135;-76
2022/07/12 02:21:19;;;;;;;;;3.00;3.00;;;;;31.67;36.96;101719.88;5111683;27;45508;-76
2022/07/12 02:23:44;;;;;;;;;4.00;3.00;;;;;31.63;36.08;101710.41;5115446;27;45193;-76
2022/07/12 02:26:09;;;;;;;;;4.25;2.50;;;;;31.67;36.06;101710.81;5118144;27;47302;-76
2022/07/12 02:28:35;;;;;;;;;6.75;4.75;;;;;31.63;36.39;101706.84;5115455;27;45541;-76
2022/07/12 02:31:00;;;;;;;;;4.00;3.00;;;;;31.51;36.36;101706.66;5102034;27;45358;-76
2022/07/12 02:33:25;;;;;;;;;5.75;4.00;;;;;31.49;36.55;101706.06;5118793;27;45490;-76
2022/07/12 02:35:51;;;;;;;;;4.25;4.25;;;;;31.60;36.07;101708.09;5117758;27;45491;-76
2022/07/12 02:38:16;;;;;;;;;2.00;2.00;;;;;31.64;36.28;101711.25;5119566;27;46114;-76
2022/07/12 02:40:54;;;;;;;;;3.25;3.25;;;;;31.48;36.77;101712.56;5118979;27;45491;-76
2022/07/12 02:43:19;;;;;;;;;6.50;4.00;;;;;31.40;36.77;101704.66;5111805;27;45525;-76
2022/07/12 02:45:45;;;;;;;;;5.00;4.00;;;;;31.57;36.30;101706.66;5119460;27;45573;-76
2022/07/12 02:48:12;;;;;;;;;3.75;3.00;;;;;31.60;36.23;101714.38;5113921;27;45385;-76
2022/07/12 02:50:40;;;;;;;;;5.00;4.00;;;;;31.58;36.27;101715.69;5116939;27;45437;-77
2022/07/12 02:53:06;;;;;;;;;3.25;3.25;;;;;31.50;36.50;101714.00;5116972;27;45520;-76
2022/07/12 02:55:32;;;;;;;;;4.00;3.00;;;;;31.46;37.13;101715.53;5117726;27;45402;-76
2022/07/12 02:57:57;;;;;;;;;5.50;3.50;;;;;31.27;37.98;101724.63;5114834;27;45766;-76
2022/07/12 03:00:23;;;;;;;;;3.50;3.50;;;;;31.16;37.13;101726.13;5117471;27;45258;-76
2022/07/12 03:02:48;;;;;;;;;3.00;3.00;;;;;31.21;37.40;101730.97;5117359;27;45711;-76
2022/07/12 03:05:13;;;;;;;;;6.00;4.00;;;;;31.15;37.56;101721.72;5113822;27;45571;-76
2022/07/12 03:07:39;;;;;;;;;5.00;3.00;;;;;31.17;37.70;101727.81;5115006;27;45674;-76
2022/07/12 03:10:05;;;;;;;;;4.00;4.00;;;;;31.20;37.24;101732.03;5101604;27;45806;-75
2022/07/12 03:12:30;;;;;;;;;4.00;4.00;;;;;31.26;37.31;101728.41;5109469;27;45481;-76
2022/07/12 03:14:56;;;;;;;;;3.00;3.00;;;;;31.19;37.16;101724.88;5114859;27;45578;-76
2022/07/12 03:17:21;;;;;;;;;4.00;4.00;;;;;31.17;37.40;101729.72;5114211;27;45460;-76
2022/07/12 03:19:47;;;;;;;;;5.00;3.00;;;;;31.26;37.34;101735.75;5101255;27;45248;-76
2022/07/12 03:22:12;;;;;;;;;4.00;4.00;;;;;31.24;37.15;101725.06;5112931;27;45344;-76
2022/07/12 03:24:37;;;;;;;;;4.00;4.00;;;;;31.19;37.01;101728.44;5099723;27;45499;-76
2022/07/12 03:27:03;;;;;;;;;3.50;3.50;;;;;31.16;37.28;101726.13;5108698;27;46017;-76
2022/07/12 03:29:28;;;;;;;;;4.00;4.00;;;;;31.41;37.08;101725.44;5118717;27;45425;-76
2022/07/12 03:31:54;;;;;;;;;3.75;3.75;;;;;31.63;36.81;101723.22;5100236;27;45436;-76
2022/07/12 03:34:19;;;;;;;;;2.00;1.00;;;;;31.48;36.51;101720.78;5117175;27;45281;-76
2022/07/12 03:36:45;;;;;;;;;4.00;3.00;;;;;31.26;37.55;101719.38;5109748;27;45509;-76
2022/07/12 03:39:11;;;;;;;;;3.00;3.00;;;;;31.12;37.40;101729.53;5109839;27;45565;-76
2022/07/12 03:41:36;;;;;;;;;4.00;4.00;;;;;31.05;37.53;101734.16;5113167;27;45420;-76
2022/07/12 03:44:02;;;;;;;;;3.50;3.50;;;;;31.01;37.45;101731.00;5111070;27;45423;-76
2022/07/12 03:46:27;;;;;;;;;8.25;4.00;;;;;31.00;37.43;101728.47;5118009;27;46105;-76
2022/07/12 03:48:52;;;;;;;;;4.75;4.50;;;;;30.90;37.85;101734.38;5114132;27;45453;-76
2022/07/12 03:51:18;;;;;;;;;4.00;3.50;;;;;31.02;37.52;101735.41;5115287;27;45499;-76
2022/07/12 03:53:43;;;;;;;;;7.50;4.50;;;;;31.09;37.47;101736.25;5116989;27;45578;-76
2022/07/12 03:56:08;;;;;;;;;3.50;3.50;;;;;31.07;37.50;101735.63;5113963;27;46549;-76
2022/07/12 03:58:34;;;;;;;;;5.00;5.00;;;;;31.03;37.70;101742.53;5114745;27;45393;-76
2022/07/12 04:00:59;;;;;;;;;4.25;4.25;;;;;30.96;37.21;101741.69;5100623;27;45364;-76
2022/07/12 04:03:24;;;;;;;;;5.00;5.00;;;;;30.98;37.80;101745.06;5113483;27;45401;-76
2022/07/12 04:05:50;;;;;;;;;3.00;3.00;;;;;30.96;37.80;101741.69;5117502;27;45208;-76
2022/07/12 04:08:16;;;;;;;;;2.25;2.25;;;;;30.90;37.75;101758.94;5117733;27;45386;-76
2022/07/12 04:10:41;;;;;;;;;4.00;4.00;;;;;30.93;37.90;101754.94;5114984;27;45419;-76
2022/07/12 04:13:07;;;;;;;;;3.25;3.25;;;;;30.89;37.73;101751.78;5101488;27;45497;-76
2022/07/12 04:15:32;;;;;;;;;5.75;5.00;;;;;30.88;37.66;101752.84;5114291;27;46077;-76
2022/07/12 04:17:57;;;;;;;;;4.75;4.75;;;;;30.84;38.03;101767.97;5100504;27;45934;-76
2022/07/12 04:20:23;;;;;;;;;6.25;5.00;;;;;31.00;37.55;101764.78;5118052;27;45520;-76
2022/07/12 04:22:48;;;;;;;;;6.00;4.00;;;;;31.09;37.45;101758.06;5116390;27;45357;-76
2022/07/12 04:25:14;;;;;;;;;5.25;4.00;;;;;30.89;37.97;101770.88;5122000;27;46256;-76
2022/07/12 04:27:39;;;;;;;;;5.75;5.00;;;;;31.04;37.57;101768.78;5118187;27;45231;-76
2022/07/12 04:30:06;;;;;;;;;5.00;5.00;;;;;31.04;37.67;101759.75;5119743;27;45523;-76
2022/07/12 04:32:31;;;;;;;;;4.25;4.00;;;;;30.98;37.82;101761.41;5117821;27;45554;-76
2022/07/12 04:34:57;;;;;;;;;4.75;4.75;;;;;30.96;37.59;101768.97;5100037;27;47440;-76
2022/07/12 04:37:22;;;;;;;;;4.50;4.50;;;;;30.94;37.87;101768.38;5115364;27;45470;-76
2022/07/12 04:39:47;;;;;;;;;4.50;4.50;;;;;30.94;37.61;101765.66;5121229;27;45400;-76
2022/07/12 04:42:13;;;;;;;;;4.00;4.00;;;;;30.94;37.98;101765.66;5119866;27;45486;-76
2022/07/12 04:44:38;;;;;;;;;5.50;4.75;;;;;30.83;38.09;101763.56;5117430;27;45571;-75
2022/07/12 04:47:03;;;;;;;;;7.00;4.75;;;;;31.01;37.97;101766.47;5104132;27;45361;-76
2022/07/12 04:49:31;;;;;;;;;4.00;4.00;;;;;31.06;37.51;101758.47;5119298;27;45472;-76
2022/07/12 04:51:57;;;;;;;;;5.00;3.25;;;;;30.87;37.77;101772.97;5119916;27;45226;-76
2022/07/12 04:54:22;;;;;;;;;6.00;6.00;;;;;30.84;37.80;101773.41;5121009;27;45408;-76
2022/07/12 04:56:47;;;;;;;;;5.00;4.75;;;;;30.76;38.22;101771.75;5102007;27;45308;-76
2022/07/12 04:59:13;;;;;;;;;7.50;4.50;;;;;30.73;38.17;101768.59;5117138;27;45434;-76
2022/07/12 05:01:40;;;;;;;;;6.00;4.75;;;;;30.64;38.12;101784.34;5111349;27;45598;-76
2022/07/12 05:04:05;;;;;;;;;6.00;5.00;;;;;30.60;38.57;101782.22;5117567;27;46445;-76
2022/07/12 05:06:30;;;;;;;;;4.50;4.50;;;;;30.61;38.39;101782.03;5119700;27;45510;-77
2022/07/12 05:08:56;;;;;;;;;7.00;7.00;;;;;30.70;38.48;101772.59;5101755;27;46953;-78
2022/07/12 05:11:21;;;;;;;;;7.25;7.25;;;;;30.62;38.34;101778.25;5118241;27;45367;-78
2022/07/12 05:13:47;;;;;;;;;9.75;8.25;;;;;30.58;38.80;101779.75;5110050;27;45519;-78
2022/07/12 05:16:12;;;;;;;;;6.75;6.75;;;;;30.64;38.17;101787.06;5073736;27;46421;-79
2022/07/12 05:18:37;;;;;;;;;6.50;6.50;;;;;30.71;38.32;101795.25;5091564;27;45605;-79
2022/07/12 05:21:03;;;;;;;;;6.00;6.00;;;;;30.69;38.30;101790.00;5114146;27;45595;-79
2022/07/12 05:23:29;;;;;;;;;6.50;6.25;;;;;30.74;38.45;101797.56;5113305;27;45514;-79
2022/07/12 05:25:54;;;;;;;;;8.50;7.50;;;;;30.79;38.51;101800.47;5113433;27;45461;-79
2022/07/12 05:28:19;;;;;;;;;6.00;5.00;;;;;30.82;38.46;101803.63;5113262;27;45565;-79
2022/07/12 05:30:45;;;;;;;;;6.00;6.00;;;;;30.77;38.41;101803.44;5118669;27;45614;-79
2022/07/12 05:33:12;;;;;;;;;7.00;6.00;;;;;30.72;38.52;101805.09;5119050;27;45422;-78
2022/07/12 05:35:38;;;;;;;;;5.00;5.00;;;;;30.83;38.04;101809.94;5119021;27;45416;-78
2022/07/12 05:38:03;;;;;;;;;5.00;5.00;;;;;30.83;38.22;101812.66;5116224;27;45238;-78
2022/07/12 05:40:29;;;;;;;;;5.75;4.50;;;;;31.00;38.26;101808.44;5134516;27;44774;-78
2022/07/12 05:42:54;;;;;;;;;5.25;5.25;;;;;31.07;37.75;101820.19;5128573;27;45236;-79
2022/07/12 05:45:19;;;;;;;;;8.00;5.00;;;;;31.10;37.49;101818.94;5120611;27;45353;-79
2022/07/12 05:47:45;;;;;;;;;5.25;4.50;;;;;31.04;38.01;101815.16;5117458;27;45611;-79
2022/07/12 05:50:10;;;;;;;;;7.00;5.00;;;;;31.02;37.86;101816.41;5120003;27;45447;-79
2022/07/12 05:55:19;;;;;;;;;6.00;5.25;;;;;30.98;37.91;101821.44;5110046;27;45904;-79
2022/07/12 05:57:45;;;;;;;;;4.75;4.75;;;;;30.90;38.12;101824.41;5112054;27;45508;-80
2022/07/12 06:00:11;;;;;;;;;5.75;5.75;;;;;30.96;38.17;101823.53;5116528;27;45636;-79
2022/07/12 06:02:37;;;;;;;;;3.50;3.25;;;;;30.98;37.67;101829.63;5113600;27;45957;-79
2022/07/12 06:05:02;;;;;;;;;5.25;5.25;;;;;31.01;37.95;101839.28;5120310;27;45500;-80
2022/07/12 06:07:28;;;;;;;;;8.00;5.00;;;;;30.87;37.96;101831.09;5110537;27;45464;-79
2022/07/12 06:09:53;;;;;;;;;6.25;5.00;;;;;30.88;38.00;101834.66;5117526;27;45460;-79
2022/07/12 06:12:18;;;;;;;;;7.75;6.00;;;;;30.86;37.89;101834.91;5098487;27;46204;-79
2022/07/12 06:14:44;;;;;;;;;6.75;6.00;;;;;30.87;38.05;101836.56;5114406;27;45511;-80
2022/07/12 06:17:09;;;;;;;;;5.25;5.00;;;;;30.78;38.87;101839.72;5115009;27;45420;-79
2022/07/12 06:19:34;;;;;;;;;7.25;5.25;;;;;30.90;38.52;101843.50;5119547;27;45381;-79
2022/07/12 06:22:00;;;;;;;;;5.00;5.00;;;;;30.94;37.87;101839.31;5120136;27;45256;-78
2022/07/12 06:24:26;;;;;;;;;6.75;6.00;;;;;31.28;37.75;101843.69;5122294;27;45393;-77
2022/07/12 06:26:51;;;;;;;;;7.00;6.00;;;;;30.97;38.12;101844.31;5115567;27;45240;-79
2022/07/12 06:29:17;;;;;;;;;6.00;6.00;;;;;30.68;38.72;101844.78;5116609;27;45405;-78
2022/07/12 06:31:42;;;;;;;;;8.75;7.25;;;;;30.65;38.72;101837.00;5117806;27;45540;-78
2022/07/12 06:34:07;;;;;;;;;6.50;6.00;;;;;30.64;38.42;101838.88;5124605;27;45423;-79
2022/07/12 06:36:33;;;;;;;;;8.50;6.50;;;;;30.80;38.47;101845.78;5115406;27;45470;-79
2022/07/12 06:38:58;;;;;;;;;6.25;6.00;;;;;30.91;38.18;101845.16;5115216;27;45222;-79
2022/07/12 06:41:24;;;;;;;;;6.00;6.00;;;;;30.96;38.77;101841.81;5096262;27;47404;-79
2022/07/12 06:43:50;;;;;;;;;6.50;6.25;;;;;31.03;38.44;101842.66;5116447;27;45699;-78
2022/07/12 06:46:15;;;;;;;;;9.00;9.00;;;;;31.10;38.28;101844.34;5101217;27;45438;-78
2022/07/12 06:48:40;;;;;;;;;8.50;8.25;;;;;31.31;38.28;101845.16;5119369;27;45566;-77
2022/07/12 06:51:06;;;;;;;;;7.00;4.25;;;;;31.36;37.97;101845.34;5117354;27;45887;-77
2022/07/12 06:53:31;;;;;;;;;8.00;7.00;;;;;31.46;37.43;101846.56;5114986;27;45420;-77
2022/07/12 06:55:57;;;;;;;;;7.50;7.50;;;;;31.62;37.03;101842.56;5110787;27;45507;-77
2022/07/12 06:58:22;;;;;;;;;8.00;7.50;;;;;31.63;37.67;101841.50;5109006;27;45534;-77
2022/07/12 07:00:48;;;;;;;;;7.75;7.00;;;;;31.72;37.20;101845.66;5111567;27;45893;-77
2022/07/12 07:03:14;;;;;;;;;9.00;7.00;;;;;31.71;37.68;101854.91;5117845;27;45393;-77
2022/07/12 07:05:39;;;;;;;;;6.75;5.50;;;;;31.92;36.92;101851.06;5117074;27;45388;-77
2022/07/12 07:08:05;;;;;;;;;6.75;4.25;;;;;32.27;36.52;101840.59;5117058;27;47511;-77
2022/07/12 07:10:30;;;;;;;;;10.25;5.75;;;;;32.38;36.24;101839.03;5113551;27;45587;-77
2022/07/12 07:12:56;;;;;;;;;8.00;6.25;;;;;32.40;36.04;101842.41;5093492;27;45870;-78
2022/07/12 07:15:21;;;;;;;;;9.50;6.50;;;;;32.48;36.04;101845.69;5118130;27;45372;-77
2022/07/12 07:17:46;;;;;;;;;7.25;6.75;;;;;32.91;36.39;101843.06;5117029;27;45516;-77
2022/07/12 07:20:12;;;;;;;;;6.25;6.25;;;;;35.43;35.23;101841.22;5097872;27;46015;-77
2022/07/12 07:22:38;;;;;;;;;9.75;8.50;;;;;38.55;32.53;101843.66;5117804;27;45373;-77
2022/07/12 07:25:04;;;;;;;;;9.25;8.00;;;;;41.20;30.05;101851.75;5120931;27;45298;-77
2022/07/12 07:27:30;;;;;;;;;3.75;3.75;;;;;42.82;27.28;101852.75;5097128;27;45425;-78
2022/07/12 07:32:39;;;;;;;;;8.50;6.00;;;;;46.04;22.57;101858.13;5118739;27;45370;-78
2022/07/12 07:35:05;;;;;;;;;6.75;5.50;;;;;47.64;22.00;101856.06;5118887;27;45416;-78
2022/07/12 07:37:32;;;;;;;;;8.00;7.00;;;;;48.61;21.62;101852.97;5118427;27;45429;-78
2022/07/12 07:39:57;;;;;;;;;8.75;6.25;;;;;49.30;20.04;101859.13;5118405;27;45513;-78
2022/07/12 07:42:23;;;;;;;;;6.25;5.25;;;;;49.58;19.90;101856.69;5115674;27;46039;-79
2022/07/12 07:44:49;;;;;;;;;5.25;5.25;;;;;50.54;18.73;101849.91;5113012;27;45464;-79
2022/07/12 07:47:14;;;;;;;;;6.75;5.50;;;;;51.40;17.88;101855.63;5110624;27;45274;-78
2022/07/12 07:49:40;;;;;;;;;6.50;5.75;;;;;52.30;17.26;101853.19;5118510;27;46094;-79
2022/07/12 07:52:05;;;;;;;;;8.75;6.50;;;;;53.00;14.85;101853.44;5105778;27;45251;-79
2022/07/12 07:54:30;;;;;;;;;5.25;5.25;;;;;53.66;16.06;101855.44;5116278;27;45285;-79
2022/07/12 07:56:56;;;;;;;;;5.75;4.50;;;;;54.47;15.12;101855.50;5122175;27;45238;-78
2022/07/12 07:59:21;;;;;;;;;6.75;6.75;;;;;55.32;15.02;101864.63;5119380;27;45504;-79
2022/07/12 08:01:48;;;;;;;;;4.50;4.50;;;;;56.10;14.10;101868.56;5122188;27;45384;-79
2022/07/12 08:04:14;;;;;;;;;7.50;5.75;;;;;56.92;14.04;101871.00;5118908;27;45430;-79
2022/07/12 08:06:41;;;;;;;;;5.75;5.00;;;;;57.13;13.61;101863.88;5119160;27;45562;-79
2022/07/12 08:09:07;;;;;;;;;7.75;4.75;;;;;57.68;13.43;101876.03;5121727;27;46439;-79
2022/07/12 08:11:33;;;;;;;;;9.00;5.75;;;;;58.50;12.64;101867.78;5122787;27;45492;-80
2022/07/12 08:13:58;;;;;;;;;6.00;5.50;;;;;58.96;12.44;101862.91;5127550;27;45308;-79
2022/07/12 08:16:24;;;;;;;;;8.75;7.00;;;;;59.37;11.95;101863.28;5131956;27;44781;-79
2022/07/12 08:18:49;;;;;;;;;6.00;6.00;;;;;59.42;11.34;101862.03;5131769;27;45389;-79
2022/07/12 08:21:14;;;;;;;;;5.75;3.50;;;;;59.92;11.66;101861.88;5115794;27;45437;-79
2022/07/12 08:23:40;;;;;;;;;5.75;5.00;;;;;59.91;11.00;101871.66;5117148;27;45431;-79
2022/07/12 08:26:05;;;;;;;;;6.25;5.75;;;;;59.54;10.69;101862.41;5120977;27;45478;-80
2022/07/12 08:28:30;;;;;;;;;4.25;4.25;;;;;59.92;10.48;101871.19;5120308;27;46180;-79
2022/07/12 08:30:56;;;;;;;;;5.75;5.50;;;;;59.32;10.31;101874.28;5113568;27;45368;-79
2022/07/12 08:33:21;;;;;;;;;5.50;5.50;;;;;58.16;11.18;101867.31;5121987;27;45356;-79
2022/07/12 08:35:47;;;;;;;;;6.50;6.50;;;;;58.60;11.61;101864.94;5117490;27;45405;-79
2022/07/12 08:38:15;;;;;;;;;3.25;3.25;;;;;57.96;10.57;101861.13;5120785;27;45378;-79
2022/07/12 08:40:40;;;;;;;;;6.00;5.25;;;;;58.51;9.60;101858.00;5123487;27;45448;-79
2022/07/12 08:43:06;;;;;;;;;8.25;5.25;;;;;58.87;10.57;101856.00;5120293;27;45451;-79
2022/07/12 08:45:31;;;;;;;;;5.00;3.00;;;;;59.73;10.82;101863.97;5115721;27;45550;-79
2022/07/12 08:47:56;;;;;;;;;5.00;3.00;;;;;60.82;9.58;101863.69;5120302;27;46117;-80
2022/07/12 08:50:24;;;;;;;;;5.00;3.00;;;;;60.40;9.44;101861.94;5121750;27;45460;-80
2022/07/12 08:52:52;;;;;;;;;7.50;3.50;;;;;59.85;9.73;101860.63;5111966;27;45247;-79
2022/07/12 08:55:30;;;;;;;;;3.00;2.50;;;;;59.43;9.81;101861.63;5122847;27;45438;-79
2022/07/12 08:57:58;;;;;;;;;5.00;5.00;;;;;58.23;9.85;101856.75;5117265;27;46134;-79
2022/07/12 09:00:25;;;;;;;;;3.75;3.75;;;;;59.48;10.75;101858.31;5115449;27;45420;-79
2022/07/12 09:02:55;;;;;;;;;4.75;4.00;;;;;60.52;9.18;101858.63;5121541;27;47231;-79
2022/07/12 09:05:29;;;;;;;;;4.00;3.75;;;;;61.15;9.78;101862.94;5097218;27;45579;-80
2022/07/12 09:08:08;;;;;;;;;5.00;4.00;;;;;61.80;9.90;101865.84;5116242;27;45602;-80
2022/07/12 09:10:35;;;;;;;;;5.25;5.25;;;;;62.98;8.69;101863.59;5117932;27;45508;-79
2022/07/12 09:13:01;;;;;;;;;5.25;3.75;;;;;63.88;8.46;101856.81;5115539;27;45396;-80
2022/07/12 09:15:27;;;;;;;;;3.25;3.00;;;;;64.86;8.44;101853.50;5118075;27;45853;-80
2022/07/12 09:18:17;;;;;;;;;4.00;4.00;;;;;65.59;7.78;101853.88;5101486;27;47671;-80
2022/07/12 09:20:50;;;;;;;;;4.50;2.75;;;;;65.69;6.98;101857.72;5117753;27;45642;-80
2022/07/12 09:23:15;;;;;;;;;6.00;4.25;;;;;65.23;6.96;101849.19;5120493;27;45586;-80
2022/07/12 09:25:45;;;;;;;;;4.50;4.00;;;;;64.69;7.52;101851.13;5121888;27;45385;-80
2022/07/12 09:28:11;;;;;;;;;3.00;3.00;;;;;64.26;7.86;101852.22;5117852;27;46465;-80
2022/07/12 09:30:46;;;;;;;;;4.00;2.75;;;;;64.75;7.02;101853.00;5116293;27;45314;-80
2022/07/12 09:36:12;;;;;;;;;4.00;3.75;;;;;65.48;7.28;101856.28;5116932;27;45476;-80
2022/07/12 09:38:39;;;;;;;;;5.00;4.00;;;;;65.57;7.37;101860.09;5102893;27;47188;-80
2022/07/12 09:41:06;;;;;;;;;2.75;2.75;;;;;66.04;7.04;101855.78;5121155;27;45440;-80
2022/07/12 09:43:32;;;;;;;;;3.00;3.00;;;;;66.07;6.81;101860.63;5116114;27;45671;-80
2022/07/12 09:45:58;;;;;;;;;6.50;5.00;;;;;66.45;6.77;101852.78;5119885;27;45424;-78
2022/07/12 09:48:26;;;;;;;;;3.75;3.75;;;;;66.73;6.14;101856.75;5113749;27;45382;-78
2022/07/12 09:50:52;;;;;;;;;2.75;2.75;;;;;66.67;5.86;101864.31;5123998;27;45586;-78
2022/07/12 09:53:26;;;;;;;;;4.00;3.00;;;;;66.65;6.48;101859.06;5127204;27;45405;-78
2022/07/12 09:55:52;;;;;;;;;2.75;2.50;;;;;65.89;6.36;101864.06;5126776;27;45587;-78
2022/07/12 09:58:23;;;;;;;;;4.00;2.50;;;;;65.93;6.44;101862.69;5123902;27;45429;-78
2022/07/12 10:00:51;;;;;;;;;4.25;4.25;;;;;65.86;7.08;101856.34;5126595;27;45372;-80
2022/07/12 10:03:20;;;;;;;;;2.25;2.25;;;;;65.71;6.48;101853.13;5129258;27;45343;-80
2022/07/12 10:05:46;;;;;;;;;3.50;3.00;;;;;64.76;6.52;101857.47;5121960;27;45339;-78
2022/07/12 10:08:12;;;;;;;;;2.00;2.00;;;;;64.19;6.53;101847.47;5126343;27;45468;-78
2022/07/12 10:10:38;;;;;;;;;5.00;3.00;;;;;63.71;6.53;101845.28;5128947;27;45965;-78
2022/07/12 10:13:07;;;;;;;;;3.00;2.25;;;;;63.96;6.89;101843.91;5124600;27;45400;-78
2022/07/12 10:15:33;;;;;;;;;2.50;2.50;;;;;64.28;6.48;101851.75;5128285;27;45399;-78
2022/07/12 10:18:04;;;;;;;;;3.00;3.00;;;;;64.49;6.56;101854.91;5122864;27;45343;-78
2022/07/12 10:20:29;;;;;;;;;3.00;3.00;;;;;64.44;6.25;101857.53;5124482;27;45575;-78
2022/07/12 10:23:15;;;;;;;;;3.75;3.75;;;;;64.32;6.38;101847.53;5123387;27;45431;-78
2022/07/12 10:25:40;;;;;;;;;2.75;2.75;;;;;64.25;6.20;101855.53;5101973;27;45689;-78
2022/07/12 10:28:06;;;;;;;;;3.25;2.75;;;;;64.31;7.20;101845.09;5118214;27;46248;-78
2022/07/12 10:30:42;;;;;;;;;5.50;4.75;;;;;64.43;5.64;101850.97;5107675;27;45403;-78
2022/07/12 10:33:15;;;;;;;;;4.00;3.25;;;;;64.03;6.01;101843.72;5126686;27;45368;-78
2022/07/12 10:36:00;;;;;;;;;3.75;2.25;;;;;62.73;6.57;101846.84;5125405;27;45492;-78
2022/07/12 10:38:26;;;;;;;;;3.50;3.50;;;;;61.25;7.62;101839.13;5107023;27;46249;-78
2022/07/12 10:40:52;;;;;;;;;6.00;4.00;;;;;60.41;7.10;101832.97;5128511;27;45524;-78
2022/07/12 10:46:23;;;;;;;;;5.00;4.00;;;;;57.29;8.53;101824.63;5118253;27;45436;-80
2022/07/12 10:48:49;;;;;;;;;4.25;4.25;;;;;55.63;9.87;101832.31;5111837;27;47529;-79
2022/07/12 10:51:23;;;;;;;;;5.00;5.00;;;;;53.76;10.24;101840.72;5126321;27;45404;-78
2022/07/12 10:53:50;;;;;;;;;4.25;3.00;;;;;51.80;11.66;101835.97;5093299;27;45435;-80
2022/07/12 10:56:24;;;;;;;;;4.75;3.00;;;;;51.39;11.06;101832.28;5107176;27;45376;-80
2022/07/12 10:58:56;;;;;;;;;3.00;3.00;;;;;51.02;10.95;101830.66;5108285;27;47360;-80
2022/07/12 11:01:32;;;;;;;;;5.00;2.00;;;;;50.15;11.06;101836.41;5125908;27;45612;-80
2022/07/12 11:04:06;;;;;;;;;1.50;1.50;;;;;50.20;11.40;101833.38;5129073;27;45455;-80
2022/07/12 11:06:36;;;;;;;;;2.50;2.50;;;;;49.56;11.62;101827.28;5128291;27;45434;-80
2022/07/12 11:09:04;;;;;;;;;3.75;3.75;;;;;49.12;12.20;101831.47;5125741;27;45421;-80
2022/07/12 11:11:31;;;;;;;;;3.25;3.25;;;;;48.97;12.71;101827.28;5105952;27;46067;-80
2022/07/12 11:13:58;;;;;;;;;2.25;1.25;;;;;48.73;12.37;101825.84;5121223;27;45456;-80
2022/07/12 11:16:25;;;;;;;;;3.00;2.25;;;;;48.14;12.95;101826.81;5125566;27;47115;-80
2022/07/12 11:18:52;;;;;;;;;2.75;2.50;;;;;47.57;12.64;101826.91;5117768;27;47071;-80
2022/07/12 11:21:18;;;;;;;;;2.75;2.75;;;;;47.15;13.29;101823.66;5109575;27;45540;-80
2022/07/12 11:23:43;;;;;;;;;2.00;2.00;;;;;46.71;12.85;101830.22;5121777;27;45427;-80
2022/07/12 11:26:10;;;;;;;;;3.50;2.75;;;;;46.46;13.41;101830.84;5124774;27;47351;-79
2022/07/12 11:28:37;;;;;;;;;3.50;2.50;;;;;45.97;13.55;101823.41;5106047;27;47387;-80
2022/07/12 11:31:05;;;;;;;;;3.50;3.50;;;;;45.93;13.49;101826.00;5122049;27;45447;-79
2022/07/12 11:33:36;;;;;;;;;2.50;2.50;;;;;45.58;14.14;101824.81;5124109;27;45597;-79
2022/07/12 11:36:07;;;;;;;;;4.00;4.00;;;;;45.18;15.24;101820.91;5105555;27;45436;-80